EKCH/CPH METAR and TAF weather

Enter ICAO airport designator
Station Type Date Time Source
EKCH METAR 2020/01/21 21:20 UTC NOAA

EKCH 212120Z 27017KT 9999 BKN015 07/05 Q1028 NOSIG


Station Type Date Time Source
EKCH Decoded METAR 2020/01/21 21:20 UTC NOAA

Koebenhavn / Kastrup, Denmark (EKCH) 55-37N 012-39E 5M
Jan 21, 2020 - 04:20 PM EST / 2020.01.21 2120 UTC
Wind: from the W (270 degrees) at 20 MPH (17 KT):0
Visibility: greater than 7 mile(s):0
Sky conditions: mostly cloudy
Temperature: 44 F (7 C)
Dew Point: 41 F (5 C)
Relative Humidity: 87%
Pressure (altimeter): 30.36 in. Hg (1028 hPa)
ob: EKCH 212120Z 27017KT 9999 BKN015 07/05 Q1028 NOSIG
cycle: 21

Station Type Date Time Source
EKCH TAF 2020/01/21 19:28 UTC NOAA

TAF
AMD EKCH 211921Z 2119/2218 28015KT 9999 SCT020
TEMPO 2119/2121 BKN014
BECMG 2208/2211 34012KT

Example: see airport list